Decoded Metar for KMAI (MARIANNA in FL, USA) (IATA:MAI) | Meteo·Mobile Aviation Weather
aviador You're here:

KMAI Decoded Metar

MARIANNA in FL, USA
Report Time2018-09-19 13:53:00
UTC Time2018-09-19 14:26:57
Flight Rules vfr VFR
Wind310° at 04 kt
W.Decomp.*RWY 36: 2.7 kt HW 3 kt LCW
RWY 26: 2.5 kt HW 3.2 kt RCW
W.Rank310° ranks 19
Current wind is below 310° avg. (6.9)
Visibility9999 m
Phenomena:N/A
Clouds:N/A
Expected CloudBase > 1,600 ft AGL from Temp-Dew spread
CeilingNone
Temp28°C (ISA +13)
Dew Point24°C (79% RH)
Heat Index31.9°C
QNH1015 hPa
Density Alt1,949 ft
Elevation105 ft
Report Wrong Elevation
Raw Report
METAR KMAI 191353Z AUTO 31004KT 10SM CLR 28/24 A2998 RMK AO2 SLP149
T02780244=

Extra information for KMAI:More info

Metar Taf Metar & Taf Last 4 Metars F.Rules Stats Wind Profile Meteogram Temp Stats Airport Information Weather charts Add Link Nearby VenuesMetar ALERT Operation Metar Decoded Social comments

AIRNAV info for KMAI